createdAt,value
2018-05-03T00:01:06.167Z,5.40
2018-05-03T00:03:33.631Z,5.40
2018-05-03T00:06:01.105Z,5.53
2018-05-03T00:08:28.596Z,5.23
2018-05-03T00:10:56.843Z,5.53
2018-05-03T00:13:24.418Z,5.27
2018-05-03T00:15:51.908Z,5.37
2018-05-03T00:18:19.411Z,5.10
2018-05-03T00:20:46.842Z,5.10
2018-05-03T00:23:14.315Z,5.73
2018-05-03T00:25:41.787Z,5.37
2018-05-03T00:28:09.290Z,4.63
2018-05-03T00:30:36.749Z,4.80
2018-05-03T00:33:04.231Z,4.83
2018-05-03T00:35:31.719Z,4.83
2018-05-03T00:37:59.182Z,4.63
2018-05-03T00:40:26.736Z,4.57
2018-05-03T00:42:54.287Z,4.67
2018-05-03T00:45:21.760Z,4.47
2018-05-03T00:47:49.314Z,4.60
2018-05-03T00:50:16.793Z,4.67
2018-05-03T00:52:45.023Z,4.33
2018-05-03T00:55:12.508Z,4.40
2018-05-03T00:57:40.056Z,4.07
2018-05-03T01:00:07.535Z,4.57
2018-05-03T01:02:35.880Z,4.40
2018-05-03T01:05:03.370Z,4.40
2018-05-03T01:07:31.595Z,4.53
2018-05-03T01:09:59.075Z,4.00
2018-05-03T01:12:26.666Z,4.20
2018-05-03T01:14:54.147Z,4.00
2018-05-03T01:17:21.653Z,3.87
2018-05-03T01:19:49.110Z,3.80
2018-05-03T01:22:16.644Z,3.83
2018-05-03T01:24:44.099Z,4.70
2018-05-03T01:27:11.576Z,4.27
2018-05-03T01:29:39.127Z,4.30
2018-05-03T01:32:06.519Z,3.50
2018-05-03T01:34:33.985Z,4.63
2018-05-03T01:37:01.457Z,3.83
2018-05-03T01:39:29.663Z,4.03
2018-05-03T01:41:57.148Z,3.83
2018-05-03T01:44:24.616Z,4.30
2018-05-03T01:46:52.111Z,3.40
2018-05-03T01:49:20.325Z,3.57
2018-05-03T01:51:47.797Z,4.40
2018-05-03T01:54:15.326Z,3.70
2018-05-03T01:56:42.823Z,4.07
2018-05-03T01:59:10.303Z,4.03
2018-05-03T02:01:38.560Z,4.27
2018-05-03T02:04:06.023Z,4.30
2018-05-03T02:06:33.483Z,4.70
2018-05-03T02:09:01.011Z,4.60
2018-05-03T02:11:28.525Z,4.87
2018-05-03T02:13:56.748Z,4.37
2018-05-03T02:16:24.198Z,4.37
2018-05-03T02:18:51.667Z,4.60
2018-05-03T02:21:19.137Z,5.00
2018-05-03T02:23:46.626Z,4.60
2018-05-03T02:26:14.847Z,4.57
2018-05-03T02:28:42.332Z,4.93
2018-05-03T02:31:09.895Z,5.57
2018-05-03T02:33:37.384Z,4.73
2018-05-03T02:36:05.624Z,4.87
2018-05-03T02:38:33.124Z,5.10
2018-05-03T02:41:00.586Z,5.30
2018-05-03T02:43:28.095Z,4.37
2018-05-03T02:45:56.438Z,5.20
2018-05-03T02:48:23.960Z,5.00
2018-05-03T02:50:52.199Z,5.27
2018-05-03T02:53:19.657Z,4.43
2018-05-03T02:55:47.139Z,4.83
2018-05-03T02:58:26.532Z,4.73
2018-05-03T03:01:11.833Z,4.60
2018-05-03T03:03:57.088Z,5.03
2018-05-03T03:06:42.308Z,4.93
2018-05-03T03:09:28.234Z,5.20
2018-05-03T03:12:05.948Z,4.67
2018-05-03T03:14:51.211Z,4.97
2018-05-03T03:17:36.509Z,5.43
2018-05-03T03:23:37.975Z,5.30
2018-05-03T03:29:39.691Z,6.87
2018-05-03T03:32:19.125Z,5.93
2018-05-03T03:34:46.690Z,5.40
2018-05-03T03:37:25.927Z,5.60
2018-05-03T03:40:11.172Z,5.43
2018-05-03T03:45:50.108Z,5.70
2018-05-03T03:48:17.598Z,6.67
2018-05-03T03:50:45.156Z,5.73
2018-05-03T03:53:12.677Z,5.83
2018-05-03T03:55:40.091Z,5.87
2018-05-03T03:58:08.307Z,6.63
2018-05-03T04:00:35.791Z,6.40
2018-05-03T04:03:03.292Z,6.37
2018-05-03T04:05:31.540Z,5.97
2018-05-03T04:07:58.991Z,6.10
2018-05-03T04:10:26.476Z,5.93
2018-05-03T04:12:54.712Z,6.30
2018-05-03T04:15:22.195Z,5.60
2018-05-03T04:18:01.576Z,5.93
2018-05-03T04:20:52.823Z,6.30
2018-05-03T04:23:45.008Z,8.00
2018-05-03T04:26:12.488Z,5.63
2018-05-03T04:28:40.159Z,6.10
2018-05-03T04:31:07.654Z,5.50
2018-05-03T04:33:35.161Z,6.00
2018-05-03T04:36:02.675Z,5.87
2018-05-03T04:38:30.135Z,6.03
2018-05-03T04:40:57.604Z,6.43
2018-05-03T04:43:25.865Z,6.10
2018-05-03T04:45:53.324Z,6.00
2018-05-03T04:48:20.807Z,5.83
2018-05-03T04:50:49.115Z,6.77
2018-05-03T04:53:16.596Z,6.27
2018-05-03T04:55:44.784Z,5.83
2018-05-03T04:58:12.265Z,5.70
2018-05-03T05:00:39.716Z,6.17
2018-05-03T05:03:07.998Z,6.00
2018-05-03T05:05:36.221Z,6.30
2018-05-03T05:08:03.679Z,6.17
2018-05-03T05:10:31.288Z,5.57
2018-05-03T05:12:58.712Z,5.87
2018-05-03T05:15:26.187Z,6.10
2018-05-03T05:17:53.669Z,5.80
2018-05-03T05:20:21.269Z,5.50
2018-05-03T05:22:48.738Z,12.17
2018-05-03T05:25:16.217Z,15.33
2018-05-03T05:27:43.704Z,6.60
2018-05-03T05:30:11.936Z,5.73
2018-05-03T05:32:39.400Z,5.23
2018-05-03T05:35:06.911Z,5.53
2018-05-03T05:37:34.397Z,5.97
2018-05-03T05:40:01.872Z,5.60
2018-05-03T05:42:29.345Z,5.57
2018-05-03T05:44:56.801Z,6.13
2018-05-03T05:47:24.306Z,5.47
2018-05-03T05:49:51.820Z,6.00
2018-05-03T05:52:19.304Z,5.80
2018-05-03T05:54:47.539Z,5.70
2018-05-03T05:57:15.043Z,6.00
2018-05-03T05:59:43.888Z,6.00
2018-05-03T06:02:11.384Z,5.80
2018-05-03T06:04:39.605Z,5.30
2018-05-03T06:07:07.087Z,5.87
2018-05-03T06:09:34.576Z,5.43
2018-05-03T06:12:02.859Z,5.67
2018-05-03T06:14:31.119Z,5.73
2018-05-03T06:16:58.600Z,5.73
2018-05-03T06:19:26.053Z,5.03
2018-05-03T06:21:53.550Z,5.17
2018-05-03T06:24:21.007Z,5.20
2018-05-03T06:26:48.492Z,5.10
2018-05-03T06:29:15.959Z,5.37
2018-05-03T06:31:43.457Z,4.90
2018-05-03T06:34:10.906Z,4.67
2018-05-03T06:36:38.408Z,5.47
2018-05-03T06:39:05.857Z,5.17
2018-05-03T06:41:33.353Z,4.87
2018-05-03T06:44:01.604Z,4.80
2018-05-03T06:46:29.092Z,5.30
2018-05-03T06:48:57.329Z,5.60
2018-05-03T06:51:24.872Z,5.30
2018-05-03T06:53:52.344Z,5.60
2018-05-03T06:56:21.148Z,5.60
2018-05-03T06:58:50.070Z,5.23
2018-05-03T07:01:18.889Z,5.20
2018-05-03T07:03:47.748Z,5.80
2018-05-03T07:06:16.545Z,5.07
2018-05-03T07:08:45.375Z,6.10
2018-05-03T07:11:14.179Z,5.40
2018-05-03T07:13:43.007Z,5.50
2018-05-03T07:16:11.873Z,5.73
2018-05-03T07:18:40.673Z,5.80
2018-05-03T07:21:09.474Z,4.93
2018-05-03T07:23:38.323Z,4.73
2018-05-03T07:26:07.143Z,5.13
2018-05-03T07:28:35.951Z,5.83
2018-05-03T07:31:04.783Z,5.47
2018-05-03T07:33:33.590Z,5.30
2018-05-03T07:36:02.423Z,5.90
2018-05-03T07:38:31.239Z,4.80
2018-05-03T07:41:00.088Z,5.47
2018-05-03T07:43:28.888Z,4.30
2018-05-03T07:45:57.131Z,10.60
2018-05-03T07:48:24.688Z,4.60
2018-05-03T07:50:52.173Z,4.30
2018-05-03T07:53:20.407Z,3.73
2018-05-03T07:55:47.876Z,4.37
2018-05-03T07:58:15.353Z,4.87
2018-05-03T08:00:42.901Z,4.07
2018-05-03T08:03:10.372Z,4.00
2018-05-03T08:05:38.613Z,4.13
2018-05-03T08:08:06.080Z,4.00
2018-05-03T08:10:34.893Z,3.70
2018-05-03T08:13:03.711Z,4.27
2018-05-03T08:15:32.534Z,3.83
2018-05-03T08:18:01.433Z,4.00
2018-05-03T08:20:30.236Z,4.13
2018-05-03T08:22:59.096Z,4.07
2018-05-03T08:25:27.900Z,3.90
2018-05-03T08:27:56.700Z,4.37
2018-05-03T08:30:25.551Z,4.10
2018-05-03T08:32:54.354Z,4.03
2018-05-03T08:35:23.189Z,3.73
2018-05-03T08:37:51.994Z,3.87
2018-05-03T08:40:20.827Z,4.23
2018-05-03T08:42:49.662Z,3.97
2018-05-03T08:45:18.495Z,3.63
2018-05-03T08:47:47.331Z,4.00
2018-05-03T08:50:16.171Z,4.30
2018-05-03T08:52:45.011Z,4.13
2018-05-03T08:55:12.496Z,4.37
2018-05-03T08:57:43.269Z,4.10
2018-05-03T09:00:10.775Z,5.00
2018-05-03T09:02:38.269Z,4.57
2018-05-03T09:05:05.725Z,4.27
2018-05-03T09:07:33.308Z,3.60
2018-05-03T09:10:00.685Z,3.80
2018-05-03T09:12:28.168Z,3.77
2018-05-03T09:14:56.384Z,4.73
2018-05-03T09:17:23.874Z,4.30
2018-05-03T09:19:51.322Z,4.73
2018-05-03T09:22:18.820Z,4.53
2018-05-03T09:24:47.057Z,4.40
2018-05-03T09:27:14.547Z,3.87
2018-05-03T09:29:42.787Z,4.07
2018-05-03T09:32:10.289Z,4.47
2018-05-03T09:34:38.505Z,3.90
2018-05-03T09:37:05.972Z,3.80
2018-05-03T09:39:33.443Z,4.00
2018-05-03T09:42:00.903Z,5.00
2018-05-03T09:44:29.544Z,4.60
2018-05-03T09:46:57.733Z,4.47
2018-05-03T09:49:25.212Z,3.90
2018-05-03T09:51:52.658Z,4.77
2018-05-03T09:54:20.131Z,3.90
2018-05-03T09:56:47.597Z,4.43
2018-05-03T09:59:15.076Z,5.70
2018-05-03T10:01:43.325Z,4.60
2018-05-03T10:04:10.787Z,4.07
2018-05-03T10:06:38.264Z,3.90
2018-05-03T10:09:07.328Z,4.43
2018-05-03T10:11:34.796Z,4.40
2018-05-03T10:14:02.263Z,3.80
2018-05-03T10:16:29.749Z,4.10
2018-05-03T10:18:57.236Z,4.40
2018-05-03T10:21:24.707Z,3.80
2018-05-03T10:23:52.289Z,4.97
2018-05-03T10:26:19.779Z,4.23
2018-05-03T10:28:47.293Z,4.20
2018-05-03T10:31:14.733Z,3.83
2018-05-03T10:33:42.214Z,4.67
2018-05-03T10:36:09.724Z,3.83
2018-05-03T10:38:37.945Z,5.03
2018-05-03T10:41:07.752Z,4.40
2018-05-03T10:43:36.571Z,4.50
2018-05-03T10:46:05.375Z,4.30
2018-05-03T10:48:34.248Z,4.63
2018-05-03T10:51:03.061Z,4.47
2018-05-03T10:53:31.913Z,5.00
2018-05-03T10:56:00.708Z,4.53
2018-05-03T10:58:29.534Z,4.23
2018-05-03T11:00:58.368Z,4.90
2018-05-03T11:03:27.187Z,3.90
2018-05-03T11:05:56.030Z,4.07
2018-05-03T11:08:24.843Z,4.17
2018-05-03T11:10:53.665Z,4.03
2018-05-03T11:13:22.488Z,4.30
2018-05-03T11:15:51.312Z,4.20
2018-05-03T11:18:20.523Z,3.70
2018-05-03T11:20:49.688Z,4.87
2018-05-03T11:23:18.789Z,4.57
2018-05-03T11:25:47.629Z,4.60
2018-05-03T11:28:16.610Z,4.20
2018-05-03T11:30:45.753Z,4.27
2018-05-03T11:33:15.217Z,3.80
2018-05-03T11:35:44.064Z,4.13
2018-05-03T11:38:12.864Z,4.30
2018-05-03T11:40:41.695Z,4.67
2018-05-03T11:43:10.512Z,4.00
2018-05-03T11:45:39.353Z,4.60
2018-05-03T11:48:08.167Z,4.33
2018-05-03T11:50:36.967Z,4.93
2018-05-03T11:53:05.853Z,3.80
2018-05-03T11:55:34.748Z,4.97
2018-05-03T11:58:03.577Z,4.87
2018-05-03T12:00:32.380Z,4.67
2018-05-03T12:03:01.297Z,4.33
2018-05-03T12:05:30.099Z,5.10
2018-05-03T12:07:58.927Z,4.47
2018-05-03T12:10:27.724Z,4.47
2018-05-03T12:12:56.548Z,5.20
2018-05-03T12:15:25.359Z,5.70
2018-05-03T12:17:54.188Z,6.27
2018-05-03T12:20:22.988Z,5.70
2018-05-03T12:22:51.823Z,6.03
2018-05-03T12:25:20.620Z,6.07
2018-05-03T12:27:49.424Z,5.73
2018-05-03T12:30:18.259Z,5.23
2018-05-03T12:32:47.052Z,5.77
2018-05-03T12:35:15.877Z,5.17
2018-05-03T12:37:44.713Z,5.03
2018-05-03T12:40:13.523Z,5.63
2018-05-03T12:42:42.330Z,5.17
2018-05-03T12:45:11.179Z,5.50
2018-05-03T12:47:39.979Z,5.33
2018-05-03T12:50:08.781Z,5.60
2018-05-03T12:52:37.616Z,6.03
2018-05-03T12:55:06.411Z,4.70
2018-05-03T12:57:35.249Z,5.30
2018-05-03T13:00:04.135Z,5.40
2018-05-03T13:02:32.978Z,5.63
2018-05-03T13:05:01.799Z,5.77
2018-05-03T13:07:30.599Z,4.93
2018-05-03T13:09:59.439Z,5.93
2018-05-03T13:12:28.247Z,5.80
2018-05-03T13:14:57.074Z,5.80
2018-05-03T13:17:25.919Z,6.20
2018-05-03T13:19:54.775Z,6.07
2018-05-03T13:22:23.623Z,5.43
2018-05-03T13:24:52.448Z,6.17
2018-05-03T13:27:21.300Z,5.50
2018-05-03T13:29:50.125Z,5.40
2018-05-03T13:32:18.982Z,5.80
2018-05-03T13:34:47.783Z,5.40
2018-05-03T13:37:16.640Z,6.43
2018-05-03T13:39:45.587Z,6.27
2018-05-03T13:42:14.390Z,6.40
2018-05-03T13:44:43.250Z,5.30
2018-05-03T13:47:12.066Z,6.00
2018-05-03T13:49:40.929Z,5.60
2018-05-03T13:52:09.740Z,6.53
2018-05-03T13:54:38.630Z,6.30
2018-05-03T13:57:07.440Z,6.40
2018-05-03T13:59:36.302Z,6.13
2018-05-03T14:02:05.107Z,5.43
2018-05-03T14:04:33.952Z,6.40
2018-05-03T14:07:02.980Z,6.40
2018-05-03T14:09:31.622Z,6.80
2018-05-03T14:12:00.444Z,6.17
2018-05-03T14:14:29.275Z,6.37
2018-05-03T14:16:58.130Z,7.00
2018-05-03T14:19:26.984Z,6.50
2018-05-03T14:21:55.828Z,7.00
2018-05-03T14:24:24.670Z,6.27
2018-05-03T14:26:53.510Z,6.40
2018-05-03T14:29:22.364Z,6.97
2018-05-03T14:31:51.180Z,6.40
2018-05-03T14:34:19.988Z,7.23
2018-05-03T14:36:48.812Z,6.33
2018-05-03T14:39:17.625Z,6.60
2018-05-03T14:41:46.485Z,6.50
2018-05-03T14:44:15.304Z,6.90
2018-05-03T14:46:44.161Z,6.60
2018-05-03T14:49:12.978Z,7.37
2018-05-03T14:51:41.843Z,6.57
2018-05-03T14:54:10.655Z,11.50
2018-05-03T14:56:39.507Z,7.70
2018-05-03T14:59:08.345Z,7.50
2018-05-03T15:01:37.246Z,6.83
2018-05-03T15:04:06.063Z,6.37
2018-05-03T15:06:34.932Z,6.13
2018-05-03T15:09:03.854Z,6.33
2018-05-03T15:11:32.671Z,7.30
2018-05-03T15:14:01.500Z,6.70
2018-05-03T15:16:30.356Z,5.97
2018-05-03T15:19:01.088Z,6.30
2018-05-03T15:21:29.915Z,5.97
2018-05-03T15:23:58.763Z,6.30
2018-05-03T15:26:27.660Z,6.33
2018-05-03T15:28:56.513Z,6.70
2018-05-03T15:31:25.326Z,7.73
2018-05-03T15:33:54.228Z,7.67
2018-05-03T15:36:22.979Z,6.73
2018-05-03T15:39:04.893Z,7.60
2018-05-03T15:41:33.686Z,6.63
2018-05-03T15:44:02.519Z,6.70
2018-05-03T15:46:31.348Z,8.13
2018-05-03T15:49:00.183Z,7.33
2018-05-03T15:51:29.037Z,7.87
2018-05-03T15:53:57.880Z,6.60
2018-05-03T15:56:26.711Z,6.60
2018-05-03T15:58:55.524Z,6.90
2018-05-03T16:01:24.355Z,6.80
2018-05-03T16:03:53.215Z,6.13
2018-05-03T16:06:22.080Z,6.43
2018-05-03T16:08:51.070Z,6.77
2018-05-03T16:11:20.047Z,7.07
2018-05-03T16:13:48.856Z,6.70
2018-05-03T16:16:17.707Z,6.80
2018-05-03T16:18:46.524Z,9.67
2018-05-03T16:21:15.390Z,6.00
2018-05-03T16:23:44.184Z,6.73
2018-05-03T16:26:13.044Z,6.50
2018-05-03T16:28:41.850Z,6.37
2018-05-03T16:31:10.681Z,6.23
2018-05-03T16:33:39.503Z,7.23
2018-05-03T16:36:08.351Z,6.73
2018-05-03T16:38:37.171Z,6.43
2018-05-03T16:41:05.978Z,8.13
2018-05-03T16:43:34.823Z,6.90
2018-05-03T16:46:03.638Z,5.90
2018-05-03T16:48:32.500Z,7.13
2018-05-03T16:51:01.332Z,6.80
2018-05-03T16:53:30.247Z,7.50
2018-05-03T16:55:59.064Z,6.93
2018-05-03T16:58:27.949Z,6.10
2018-05-03T17:00:56.800Z,6.00
2018-05-03T17:03:25.650Z,5.70
2018-05-03T17:05:54.549Z,5.77
2018-05-03T17:08:23.370Z,5.77
2018-05-03T17:10:52.516Z,6.57
2018-05-03T17:13:21.408Z,5.63
2018-05-03T17:15:50.238Z,6.00
2018-05-03T17:18:19.073Z,11.27
2018-05-03T17:20:47.936Z,6.17
2018-05-03T17:23:17.042Z,6.20
2018-05-03T17:25:46.200Z,5.73
2018-05-03T17:28:15.349Z,5.77
2018-05-03T17:30:44.534Z,6.40
2018-05-03T17:33:13.663Z,5.90
2018-05-03T17:35:42.872Z,5.83
2018-05-03T17:38:11.985Z,6.37
2018-05-03T17:40:41.145Z,6.20
2018-05-03T17:43:10.263Z,6.13
2018-05-03T17:45:39.400Z,5.63
2018-05-03T17:48:07.664Z,5.80
2018-05-03T17:50:36.823Z,6.30
2018-05-03T17:53:05.730Z,6.07
2018-05-03T17:55:34.584Z,6.77
2018-05-03T17:58:04.929Z,6.63
2018-05-03T18:00:33.799Z,5.70
2018-05-03T18:03:02.642Z,6.03
2018-05-03T18:05:31.466Z,8.23
2018-05-03T18:08:00.342Z,6.67
2018-05-03T18:10:29.207Z,6.07
2018-05-03T18:15:45.568Z,6.73
2018-05-03T18:18:14.427Z,6.30
2018-05-03T18:20:43.246Z,6.10
2018-05-03T18:23:12.109Z,6.47
2018-05-03T18:25:41.239Z,6.93
2018-05-03T18:28:11.778Z,6.50
2018-05-03T18:30:41.083Z,6.77
2018-05-03T18:33:09.932Z,7.13
2018-05-03T18:35:38.776Z,6.87
2018-05-03T18:38:07.655Z,7.33
2018-05-03T18:40:36.486Z,8.13
2018-05-03T18:43:05.336Z,7.43
2018-05-03T18:45:34.171Z,7.77
2018-05-03T18:48:01.664Z,7.30
2018-05-03T18:50:30.518Z,7.37
2018-05-03T18:52:59.763Z,6.80
2018-05-03T18:55:28.676Z,7.30
2018-05-03T18:57:56.153Z,7.40
2018-05-03T19:00:23.737Z,6.27
2018-05-03T19:02:51.211Z,6.03
2018-05-03T19:05:19.505Z,6.80
2018-05-03T19:07:47.027Z,6.60
2018-05-03T19:10:14.634Z,6.83
2018-05-03T19:12:42.845Z,6.27
2018-05-03T19:15:10.362Z,6.27
2018-05-03T19:17:37.848Z,6.53
2018-05-03T19:20:05.367Z,6.50
2018-05-03T19:22:32.902Z,6.83
2018-05-03T19:25:00.363Z,6.67
2018-05-03T19:27:28.690Z,6.80
2018-05-03T19:29:56.172Z,6.93
2018-05-03T19:32:23.713Z,9.03
2018-05-03T19:34:51.212Z,12.10
2018-05-03T19:37:18.709Z,6.70
2018-05-03T19:39:46.380Z,7.47
2018-05-03T19:42:13.877Z,7.17
2018-05-03T19:44:41.409Z,6.30
2018-05-03T19:47:08.947Z,6.33
2018-05-03T19:49:36.462Z,7.30
2018-05-03T19:52:04.823Z,6.40
2018-05-03T19:54:32.303Z,6.87
2018-05-03T19:57:00.578Z,7.23
2018-05-03T19:59:29.433Z,6.60
2018-05-03T20:01:58.244Z,7.37
2018-05-03T20:04:27.104Z,6.43
2018-05-03T20:06:55.952Z,6.67
2018-05-03T20:09:24.815Z,7.00
2018-05-03T20:11:53.701Z,12.63
2018-05-03T20:14:22.522Z,8.43
2018-05-03T20:16:51.422Z,6.37
2018-05-03T20:19:20.245Z,6.70
2018-05-03T20:21:49.079Z,7.27
2018-05-03T20:24:17.981Z,6.80
2018-05-03T20:26:46.843Z,6.40
2018-05-03T20:29:15.721Z,6.50
2018-05-03T20:31:44.573Z,6.13
2018-05-03T20:34:13.430Z,6.23
2018-05-03T20:36:42.378Z,7.30
2018-05-03T20:39:11.207Z,7.00
2018-05-03T20:41:40.036Z,6.37
2018-05-03T20:44:08.895Z,6.37
2018-05-03T20:46:37.712Z,6.83
2018-05-03T20:49:06.557Z,6.43
2018-05-03T20:51:35.392Z,6.30
2018-05-03T20:54:04.240Z,6.77
2018-05-03T20:56:33.128Z,6.53
2018-05-03T20:59:01.954Z,6.57
2018-05-03T21:01:30.787Z,6.70
2018-05-03T21:03:59.637Z,6.80
2018-05-03T21:06:28.458Z,6.97
2018-05-03T21:08:57.356Z,6.87
2018-05-03T21:11:26.202Z,7.37
2018-05-03T21:13:55.016Z,6.90
2018-05-03T21:16:23.850Z,7.13
2018-05-03T21:18:52.672Z,6.80
2018-05-03T21:21:21.832Z,6.70
2018-05-03T21:23:50.666Z,7.17
2018-05-03T21:26:19.509Z,6.90
2018-05-03T21:28:48.288Z,7.17
2018-05-03T21:31:17.192Z,6.77
2018-05-03T21:33:46.146Z,6.73
2018-05-03T21:36:14.981Z,6.70
2018-05-03T21:38:43.784Z,7.10
2018-05-03T21:41:12.624Z,7.07
2018-05-03T21:43:41.457Z,6.23
2018-05-03T21:46:10.278Z,6.90
2018-05-03T21:48:39.151Z,7.63
2018-05-03T21:51:08.029Z,7.10
2018-05-03T21:53:36.864Z,6.80
2018-05-03T21:56:05.679Z,6.70
2018-05-03T21:58:34.519Z,7.77
2018-05-03T22:01:03.329Z,5.97
2018-05-03T22:03:32.167Z,6.97
2018-05-03T22:06:01.042Z,7.47
2018-05-03T22:08:29.870Z,7.20
2018-05-03T22:10:58.695Z,6.73
2018-05-03T22:13:27.520Z,7.20
2018-05-03T22:15:56.331Z,7.80
2018-05-03T22:18:25.153Z,7.17
2018-05-03T22:20:53.971Z,7.23
2018-05-03T22:23:22.799Z,8.07
2018-05-03T22:25:51.673Z,7.33
2018-05-03T22:28:20.515Z,8.03
2018-05-03T22:30:49.368Z,8.07
2018-05-03T22:33:18.161Z,8.77
2018-05-03T22:35:46.991Z,8.53
2018-05-03T22:38:15.833Z,7.90
2018-05-03T22:40:44.696Z,7.73
2018-05-03T22:43:13.507Z,8.43
2018-05-03T22:45:42.341Z,8.70
2018-05-03T22:48:11.163Z,8.70
2018-05-03T22:50:40.009Z,8.40
2018-05-03T22:53:09.058Z,9.37
2018-05-03T22:55:38.262Z,8.83
2018-05-03T22:58:07.414Z,9.37
2018-05-03T23:00:36.519Z,9.50
2018-05-03T23:03:05.664Z,9.93
2018-05-03T23:05:34.795Z,10.13
2018-05-03T23:08:03.927Z,10.17
2018-05-03T23:10:33.033Z,10.07
2018-05-03T23:13:02.156Z,10.47
2018-05-03T23:15:31.271Z,10.07
2018-05-03T23:18:00.413Z,10.63
2018-05-03T23:20:29.229Z,10.53
2018-05-03T23:22:58.071Z,11.67
2018-05-03T23:25:26.899Z,12.10
2018-05-03T23:27:55.728Z,12.27
2018-05-03T23:30:24.562Z,12.50
2018-05-03T23:32:53.392Z,13.63
2018-05-03T23:35:22.240Z,13.07
2018-05-03T23:37:51.044Z,13.37
2018-05-03T23:40:19.888Z,12.77
2018-05-03T23:42:48.720Z,13.53
2018-05-03T23:45:17.562Z,12.80
2018-05-03T23:47:46.375Z,14.30
2018-05-03T23:50:15.246Z,13.40
2018-05-03T23:52:44.062Z,14.10
2018-05-03T23:55:12.971Z,14.17
2018-05-03T23:57:41.860Z,14.60
